createdAt,value
2022-10-01T00:01:02.965Z,29.39
2022-10-01T00:03:31.734Z,29.63
2022-10-01T00:06:19.168Z,29.06
2022-10-01T00:08:49.068Z,28.97
2022-10-01T00:11:18.719Z,29.28
2022-10-01T00:13:46.301Z,29.23
2022-10-01T00:16:15.683Z,29.64
2022-10-01T00:18:44.041Z,29.47
2022-10-01T00:21:21.849Z,29.46
2022-10-01T00:23:55.435Z,29.41
2022-10-01T00:26:23.635Z,29.63
2022-10-01T00:28:53.527Z,29.54
2022-10-01T00:31:21.301Z,29.58
2022-10-01T00:33:48.941Z,29.86
2022-10-01T00:36:16.125Z,29.17
2022-10-01T00:38:43.343Z,29.87
2022-10-01T00:41:10.740Z,29.52
2022-10-01T00:43:42.460Z,29.61
2022-10-01T00:46:21.404Z,29.44
2022-10-01T00:49:07.175Z,29.41
2022-10-01T00:51:39.818Z,29.54
2022-10-01T00:54:19.473Z,29.51
2022-10-01T00:56:47.319Z,29.51
2022-10-01T00:59:16.323Z,29.40
2022-10-01T01:01:44.331Z,29.21
2022-10-01T01:04:17.320Z,29.09
2022-10-01T01:06:55.849Z,29.19
2022-10-01T01:09:25.090Z,29.81
2022-10-01T01:11:52.392Z,29.47
2022-10-01T01:14:34.611Z,29.78
2022-10-01T01:17:08.598Z,29.71
2022-10-01T01:19:38.604Z,29.53
2022-10-01T01:22:07.703Z,29.77
2022-10-01T01:24:47.028Z,29.88
2022-10-01T01:27:16.387Z,29.94
2022-10-01T01:30:01.435Z,29.71
2022-10-01T01:32:31.755Z,29.77
2022-10-01T01:35:01.127Z,29.75
2022-10-01T01:37:31.968Z,29.36
2022-10-01T01:39:59.911Z,29.57
2022-10-01T01:42:31.290Z,29.29
2022-10-01T01:45:00.122Z,29.75
2022-10-01T01:47:33.007Z,29.55
2022-10-01T01:50:02.866Z,29.71
2022-10-01T01:52:30.505Z,29.65
2022-10-01T01:54:58.135Z,29.64
2022-10-01T01:57:26.429Z,29.30
2022-10-01T01:59:54.450Z,29.69
2022-10-01T02:02:30.753Z,29.79
2022-10-01T02:05:00.780Z,29.67
2022-10-01T02:07:53.503Z,29.83
2022-10-01T02:10:23.836Z,29.77
2022-10-01T02:13:01.953Z,29.46
2022-10-01T02:15:48.219Z,29.52
2022-10-01T02:18:18.217Z,28.90
2022-10-01T02:20:47.917Z,29.53
2022-10-01T02:23:22.452Z,29.11
2022-10-01T02:25:52.370Z,29.41
2022-10-01T02:28:22.809Z,29.35
2022-10-01T02:30:55.359Z,29.35
2022-10-01T02:33:25.079Z,29.33
2022-10-01T02:35:53.722Z,29.43
2022-10-01T02:38:22.727Z,29.48
2022-10-01T02:40:52.913Z,29.83
2022-10-01T02:43:26.109Z,30.01
2022-10-01T02:45:56.634Z,29.83
2022-10-01T02:48:24.180Z,30.05
2022-10-01T02:51:00.975Z,29.33
2022-10-01T02:53:28.256Z,29.20
2022-10-01T02:55:56.671Z,29.45
2022-10-01T02:58:24.345Z,29.46
2022-10-01T03:00:51.834Z,29.15
2022-10-01T03:03:19.169Z,29.33
2022-10-01T03:05:46.394Z,29.60
2022-10-01T03:08:13.662Z,29.67
2022-10-01T03:10:44.687Z,29.64
2022-10-01T03:13:14.088Z,29.55
2022-10-01T03:15:41.370Z,29.50
2022-10-01T03:18:08.598Z,29.50
2022-10-01T03:20:35.834Z,29.25
2022-10-01T03:23:03.087Z,29.65
2022-10-01T03:25:30.248Z,29.54
2022-10-01T03:27:58.665Z,30.17
2022-10-01T03:30:26.985Z,29.67
2022-10-01T03:32:54.215Z,29.69
2022-10-01T03:35:21.492Z,28.75
2022-10-01T03:37:49.403Z,28.76
2022-10-01T03:40:16.625Z,29.43
2022-10-01T03:42:43.897Z,29.41
2022-10-01T03:45:11.099Z,29.68
2022-10-01T03:47:39.487Z,29.34
2022-10-01T03:50:06.988Z,29.57
2022-10-01T03:52:34.214Z,29.32
2022-10-01T03:55:01.423Z,29.42
2022-10-01T03:57:28.812Z,29.79
2022-10-01T03:59:56.168Z,29.46
2022-10-01T04:02:24.211Z,29.83
2022-10-01T04:04:51.624Z,29.71
2022-10-01T04:07:19.043Z,29.01
2022-10-01T04:09:48.242Z,29.35
2022-10-01T04:12:15.623Z,29.28
2022-10-01T04:14:42.791Z,29.18
2022-10-01T04:17:10.147Z,29.36
2022-10-01T04:19:37.365Z,29.49
2022-10-01T04:22:04.618Z,29.61
2022-10-01T04:24:31.822Z,29.44
2022-10-01T04:26:59.178Z,29.30
2022-10-01T04:29:26.342Z,29.63
2022-10-01T04:31:54.528Z,29.36
2022-10-01T04:34:41.750Z,28.99
2022-10-01T04:37:09.053Z,28.96
2022-10-01T04:39:36.220Z,28.69
2022-10-01T04:42:03.613Z,29.05
2022-10-01T04:44:31.301Z,29.00
2022-10-01T04:46:58.650Z,28.98
2022-10-01T04:49:25.958Z,28.79
2022-10-01T04:51:53.267Z,29.03
2022-10-01T04:54:20.459Z,28.97
2022-10-01T04:56:47.840Z,28.68
2022-10-01T04:59:15.018Z,29.17
2022-10-01T05:01:42.437Z,28.84
2022-10-01T05:04:09.814Z,28.86
2022-10-01T05:06:37.243Z,28.80
2022-10-01T05:09:04.539Z,28.80
2022-10-01T05:11:32.286Z,29.01
2022-10-01T05:14:00.162Z,28.82
2022-10-01T05:16:27.631Z,29.25
2022-10-01T05:18:54.941Z,28.69
2022-10-01T05:21:22.203Z,29.04
2022-10-01T05:23:49.352Z,29.02
2022-10-01T05:26:16.841Z,28.86
2022-10-01T05:28:44.735Z,29.17
2022-10-01T05:31:12.277Z,28.97
2022-10-01T05:33:40.409Z,29.04
2022-10-01T05:36:07.759Z,29.22
2022-10-01T05:38:37.705Z,28.89
2022-10-01T05:41:05.182Z,28.96
2022-10-01T05:43:32.399Z,28.98
2022-10-01T05:46:00.577Z,29.05
2022-10-01T05:48:28.039Z,28.89
2022-10-01T05:50:55.279Z,28.96
2022-10-01T05:53:23.639Z,28.81
2022-10-01T05:55:51.043Z,28.86
2022-10-01T05:58:18.305Z,28.73
2022-10-01T06:00:45.645Z,28.92
2022-10-01T06:03:13.227Z,29.05
2022-10-01T06:05:41.030Z,28.81
2022-10-01T06:08:09.769Z,29.05
2022-10-01T06:10:37.884Z,29.57
2022-10-01T06:13:08.222Z,29.19
2022-10-01T06:15:38.177Z,29.31
2022-10-01T06:18:06.508Z,28.68
2022-10-01T06:20:33.846Z,29.06
2022-10-01T06:23:01.370Z,28.93
2022-10-01T06:25:31.860Z,28.95
2022-10-01T06:27:59.847Z,28.71
2022-10-01T06:30:31.976Z,28.91
2022-10-01T06:33:09.543Z,28.83
2022-10-01T06:35:43.349Z,28.75
2022-10-01T06:38:11.491Z,28.23
2022-10-01T06:40:39.417Z,27.51
2022-10-01T06:43:08.459Z,28.07
2022-10-01T06:45:40.681Z,28.31
2022-10-01T06:48:08.622Z,28.59
2022-10-01T06:50:35.907Z,28.48
2022-10-01T06:53:04.198Z,28.63
2022-10-01T06:55:32.692Z,29.11
2022-10-01T06:58:04.555Z,28.91
2022-10-01T07:00:33.452Z,29.25
2022-10-01T07:03:01.108Z,28.90
2022-10-01T07:05:28.543Z,29.04
2022-10-01T07:07:55.791Z,29.09
2022-10-01T07:10:23.311Z,28.81
2022-10-01T07:12:51.229Z,29.03
2022-10-01T07:15:22.773Z,28.77
2022-10-01T07:17:50.825Z,29.08
2022-10-01T07:20:19.914Z,28.58
2022-10-01T07:22:48.552Z,29.21
2022-10-01T07:25:15.910Z,28.68
2022-10-01T07:27:43.164Z,28.79
2022-10-01T07:30:10.657Z,28.74
2022-10-01T07:32:38.020Z,28.61
2022-10-01T07:35:06.025Z,28.82
2022-10-01T07:37:33.315Z,29.06
2022-10-01T07:40:04.237Z,28.92
2022-10-01T07:42:35.669Z,29.07
2022-10-01T07:45:06.673Z,28.95
2022-10-01T07:47:33.942Z,28.87
2022-10-01T07:50:01.228Z,28.87
2022-10-01T07:52:28.844Z,29.15
2022-10-01T07:54:56.063Z,29.02
2022-10-01T07:57:23.484Z,29.08
2022-10-01T07:59:54.955Z,29.15
2022-10-01T08:02:23.078Z,28.83
2022-10-01T08:05:08.889Z,28.97
2022-10-01T08:07:36.918Z,28.69
2022-10-01T08:10:04.668Z,28.54
2022-10-01T08:12:31.916Z,28.69
2022-10-01T08:14:59.452Z,28.79
2022-10-01T08:17:29.481Z,28.63
2022-10-01T08:19:56.884Z,28.28
2022-10-01T08:22:24.225Z,28.46
2022-10-01T08:24:51.485Z,28.50
2022-10-01T08:27:18.724Z,28.46
2022-10-01T08:29:46.018Z,28.58
2022-10-01T08:32:13.292Z,28.59
2022-10-01T08:34:40.604Z,28.45
2022-10-01T08:37:07.873Z,28.45
2022-10-01T08:39:36.040Z,28.25
2022-10-01T08:42:03.382Z,28.69
2022-10-01T08:44:42.619Z,28.40
2022-10-01T08:47:16.387Z,28.27
2022-10-01T08:49:48.587Z,28.63
2022-10-01T08:52:21.542Z,28.17
2022-10-01T08:54:57.032Z,28.22
2022-10-01T08:57:25.698Z,28.27
2022-10-01T08:59:55.024Z,28.20
2022-10-01T09:02:22.381Z,27.97
2022-10-01T09:04:51.954Z,28.46
2022-10-01T09:07:28.976Z,28.47
2022-10-01T09:10:05.777Z,28.59
2022-10-01T09:12:53.309Z,28.64
2022-10-01T09:15:29.439Z,28.33
2022-10-01T09:18:11.639Z,28.54
2022-10-01T09:20:42.230Z,28.29
2022-10-01T09:23:28.976Z,28.71
2022-10-01T09:26:00.089Z,28.44
2022-10-01T09:28:27.395Z,28.45
2022-10-01T09:30:55.912Z,28.37
2022-10-01T09:33:36.868Z,28.47
2022-10-01T09:36:19.884Z,28.17
2022-10-01T09:38:52.360Z,28.22
2022-10-01T09:41:19.890Z,28.26
2022-10-01T09:43:47.912Z,28.05
2022-10-01T09:46:17.317Z,27.98
2022-10-01T09:48:46.287Z,27.78
2022-10-01T09:51:16.668Z,28.70
2022-10-01T09:53:46.873Z,28.47
2022-10-01T09:56:21.801Z,28.10
2022-10-01T09:58:52.923Z,28.19
2022-10-01T10:01:42.426Z,28.12
2022-10-01T10:04:09.880Z,27.64
2022-10-01T10:06:38.317Z,28.57
2022-10-01T10:09:14.735Z,28.46
2022-10-01T10:11:45.731Z,28.37
2022-10-01T10:14:25.075Z,28.37
2022-10-01T10:16:52.378Z,28.43
2022-10-01T10:19:25.989Z,28.43
2022-10-01T10:21:54.691Z,28.01
2022-10-01T10:24:27.368Z,28.40
2022-10-01T10:26:56.122Z,28.83
2022-10-01T10:29:31.138Z,28.28
2022-10-01T10:32:14.496Z,28.03
2022-10-01T10:34:44.176Z,28.04
2022-10-01T10:37:13.892Z,28.64
2022-10-01T10:39:43.241Z,28.56
2022-10-01T10:42:15.172Z,27.86
2022-10-01T10:44:43.922Z,27.82
2022-10-01T10:47:13.670Z,27.96
2022-10-01T10:49:45.230Z,28.32
2022-10-01T10:52:28.991Z,27.79
2022-10-01T10:55:00.147Z,27.43
2022-10-01T10:57:31.173Z,27.76
2022-10-01T11:00:03.623Z,27.69
2022-10-01T11:02:33.236Z,27.77
2022-10-01T11:05:05.584Z,27.53
2022-10-01T11:07:33.453Z,27.71
2022-10-01T11:10:23.469Z,27.03
2022-10-01T11:12:57.435Z,27.05
2022-10-01T11:15:43.734Z,26.74
2022-10-01T11:18:29.789Z,27.20
2022-10-01T11:21:10.828Z,26.56
2022-10-01T11:23:40.847Z,27.16
2022-10-01T11:26:09.916Z,26.82
2022-10-01T11:28:50.460Z,26.89
2022-10-01T11:31:22.644Z,27.55
2022-10-01T11:33:52.748Z,27.29
2022-10-01T11:36:36.172Z,27.26
2022-10-01T11:39:12.671Z,27.42
2022-10-01T11:41:43.304Z,26.61
2022-10-01T11:44:16.597Z,26.80
2022-10-01T11:46:56.149Z,27.26
2022-10-01T11:49:29.258Z,26.92
2022-10-01T11:52:07.020Z,26.22
2022-10-01T11:54:35.238Z,26.97
2022-10-01T11:57:23.273Z,27.36
2022-10-01T12:00:00.144Z,27.30
2022-10-01T12:02:33.306Z,27.30
2022-10-01T12:05:10.358Z,27.59
2022-10-01T12:07:43.310Z,27.48
2022-10-01T12:10:26.700Z,26.91
2022-10-01T12:13:04.400Z,27.46
2022-10-01T12:15:37.696Z,27.52
2022-10-01T12:18:20.294Z,27.21
2022-10-01T12:20:58.503Z,27.21
2022-10-01T12:23:31.885Z,27.51
2022-10-01T12:26:05.204Z,27.68
2022-10-01T12:28:38.958Z,27.53
2022-10-01T12:31:09.425Z,27.59
2022-10-01T12:33:51.327Z,27.49
2022-10-01T12:36:37.718Z,27.40
2022-10-01T12:39:25.078Z,27.29
2022-10-01T12:42:12.280Z,27.32
2022-10-01T12:44:39.556Z,27.30
2022-10-01T12:47:25.438Z,27.10
2022-10-01T12:49:52.719Z,27.34
2022-10-01T12:52:19.957Z,27.45
2022-10-01T12:55:06.725Z,27.71
2022-10-01T12:57:52.856Z,27.76
2022-10-01T13:00:22.297Z,27.56
2022-10-01T13:02:58.649Z,27.66
2022-10-01T13:05:25.844Z,27.76
2022-10-01T13:08:13.319Z,28.14
2022-10-01T13:11:06.990Z,27.72
2022-10-01T13:13:34.741Z,27.67
2022-10-01T13:16:01.996Z,28.15
2022-10-01T13:18:32.425Z,27.72
2022-10-01T13:21:14.928Z,27.37
2022-10-01T13:23:58.269Z,28.10
2022-10-01T13:26:32.298Z,28.07
2022-10-01T13:29:06.300Z,28.03
2022-10-01T13:31:51.626Z,28.18
2022-10-01T13:34:36.508Z,28.33
2022-10-01T13:37:13.692Z,27.77
2022-10-01T13:39:43.538Z,27.92
2022-10-01T13:42:16.214Z,28.27
2022-10-01T13:44:43.659Z,28.15
2022-10-01T13:47:13.342Z,27.93
2022-10-01T13:49:42.999Z,28.56
2022-10-01T13:52:19.344Z,28.61
2022-10-01T13:54:50.362Z,28.27
2022-10-01T13:57:31.766Z,28.31
2022-10-01T14:00:04.877Z,28.90
2022-10-01T14:02:37.307Z,28.43
2022-10-01T14:05:12.064Z,28.69
2022-10-01T14:07:40.043Z,28.33
2022-10-01T14:10:11.110Z,28.62
2022-10-01T14:13:00.000Z,28.83
2022-10-01T14:15:56.835Z,28.82
2022-10-01T14:18:26.190Z,28.38
2022-10-01T14:21:08.311Z,28.43
2022-10-01T14:23:53.993Z,28.73
2022-10-01T14:26:41.561Z,28.54
2022-10-01T14:29:24.801Z,28.84
2022-10-01T14:32:11.132Z,27.76
2022-10-01T14:34:42.377Z,28.00
2022-10-01T14:37:16.941Z,28.44
2022-10-01T14:39:45.004Z,29.15
2022-10-01T14:42:18.436Z,29.37
2022-10-01T14:44:46.583Z,29.15
2022-10-01T14:47:21.113Z,29.25
2022-10-01T14:49:49.027Z,29.20
2022-10-01T14:52:16.177Z,29.41
2022-10-01T14:54:46.096Z,28.42
2022-10-01T14:57:19.000Z,29.13
2022-10-01T14:59:47.369Z,29.20
2022-10-01T15:02:21.591Z,29.30
2022-10-01T15:04:50.758Z,29.26
2022-10-01T15:07:18.504Z,28.88
2022-10-01T15:09:46.054Z,28.97
2022-10-01T15:12:15.867Z,28.62
2022-10-01T15:14:43.731Z,29.36
2022-10-01T15:17:22.235Z,29.54
2022-10-01T15:19:52.246Z,29.36
2022-10-01T15:22:22.911Z,29.22
2022-10-01T15:24:51.944Z,28.99
2022-10-01T15:27:20.346Z,29.41
2022-10-01T15:29:56.066Z,29.40
2022-10-01T15:32:24.580Z,29.18
2022-10-01T15:34:56.278Z,28.81
2022-10-01T15:37:34.487Z,29.32
2022-10-01T15:40:02.957Z,29.35
2022-10-01T15:42:32.884Z,29.34
2022-10-01T15:45:09.770Z,29.33
2022-10-01T15:47:37.537Z,29.33
2022-10-01T15:50:10.572Z,29.06
2022-10-01T15:52:50.581Z,29.06
2022-10-01T15:55:26.641Z,28.61
2022-10-01T15:57:56.894Z,28.87
2022-10-01T16:00:28.791Z,29.10
2022-10-01T16:02:57.610Z,29.11
2022-10-01T16:05:26.813Z,29.03
2022-10-01T16:07:58.646Z,29.35
2022-10-01T16:10:29.017Z,29.24
2022-10-01T16:12:56.259Z,29.29
2022-10-01T16:15:30.873Z,29.24
2022-10-01T16:17:59.278Z,29.04
2022-10-01T16:20:34.777Z,28.94
2022-10-01T16:23:21.189Z,29.13
2022-10-01T16:25:48.478Z,29.06
2022-10-01T16:28:25.919Z,28.84
2022-10-01T16:30:53.342Z,29.25
2022-10-01T16:33:20.918Z,29.62
2022-10-01T16:35:48.217Z,29.30
2022-10-01T16:38:15.517Z,29.35
2022-10-01T16:40:43.880Z,29.59
2022-10-01T16:43:16.684Z,28.92
2022-10-01T16:45:44.651Z,28.61
2022-10-01T16:48:13.591Z,28.55
2022-10-01T16:50:42.142Z,29.39
2022-10-01T16:53:13.181Z,29.40
2022-10-01T16:55:40.453Z,29.24
2022-10-01T16:58:08.152Z,29.31
2022-10-01T17:00:37.276Z,29.07
2022-10-01T17:03:06.649Z,29.15
2022-10-01T17:05:35.777Z,29.10
2022-10-01T17:08:11.411Z,29.22
2022-10-01T17:10:45.189Z,29.10
2022-10-01T17:13:12.906Z,29.37
2022-10-01T17:15:41.127Z,29.42
2022-10-01T17:18:09.772Z,29.72
2022-10-01T17:20:38.264Z,29.21
2022-10-01T17:23:06.004Z,29.34
2022-10-01T17:25:35.692Z,29.18
2022-10-01T17:28:04.140Z,29.14
2022-10-01T17:30:31.636Z,28.68
2022-10-01T17:33:02.544Z,29.20
2022-10-01T17:35:30.057Z,28.82
2022-10-01T17:37:57.315Z,28.90
2022-10-01T17:40:24.863Z,28.95
2022-10-01T17:42:52.125Z,28.75
2022-10-01T17:45:19.446Z,28.75
2022-10-01T17:47:47.506Z,29.04
2022-10-01T17:50:15.009Z,29.11
2022-10-01T17:52:42.291Z,28.85
2022-10-01T17:55:09.894Z,29.28
2022-10-01T17:57:37.153Z,29.13
2022-10-01T18:00:04.840Z,29.07
2022-10-01T18:02:43.367Z,29.20
2022-10-01T18:05:12.806Z,28.75
2022-10-01T18:07:40.685Z,28.12
2022-10-01T18:10:09.313Z,28.30
2022-10-01T18:12:36.685Z,28.85
2022-10-01T18:15:04.107Z,29.28
2022-10-01T18:17:32.190Z,28.95
2022-10-01T18:19:59.791Z,29.01
2022-10-01T18:22:27.510Z,29.55
2022-10-01T18:24:54.737Z,29.16
2022-10-01T18:27:22.109Z,29.17
2022-10-01T18:29:49.426Z,29.37
2022-10-01T18:32:18.803Z,28.99
2022-10-01T18:34:45.963Z,29.16
2022-10-01T18:37:24.494Z,29.63
2022-10-01T18:40:14.834Z,29.65
2022-10-01T18:42:48.604Z,29.23
2022-10-01T18:45:17.871Z,29.22
2022-10-01T18:48:13.495Z,29.41
2022-10-01T18:50:48.591Z,29.48
2022-10-01T18:53:38.840Z,29.09
2022-10-01T18:56:06.068Z,29.31
2022-10-01T18:58:36.255Z,29.34
2022-10-01T19:01:10.947Z,29.52
2022-10-01T19:03:41.313Z,29.06
2022-10-01T19:06:08.555Z,29.15
2022-10-01T19:08:35.735Z,29.30
2022-10-01T19:11:07.045Z,29.08
2022-10-01T19:13:37.012Z,29.06
2022-10-01T19:16:10.104Z,28.83
2022-10-01T19:18:51.993Z,28.94
2022-10-01T19:21:25.172Z,29.12
2022-10-01T19:24:01.279Z,29.02
2022-10-01T19:26:31.136Z,29.00
2022-10-01T19:29:04.561Z,28.78
2022-10-01T19:31:39.227Z,28.92
2022-10-01T19:34:09.679Z,29.08
2022-10-01T19:36:43.663Z,29.09
2022-10-01T19:39:12.808Z,28.83
2022-10-01T19:41:47.394Z,29.25
2022-10-01T19:44:33.025Z,29.18
2022-10-01T19:47:20.572Z,29.02
2022-10-01T19:49:50.262Z,28.90
2022-10-01T19:52:18.419Z,29.08
2022-10-01T19:54:48.912Z,28.92
2022-10-01T19:57:23.849Z,29.25
2022-10-01T19:59:55.025Z,28.91
2022-10-01T20:02:32.765Z,28.86
2022-10-01T20:05:09.690Z,29.10
2022-10-01T20:07:45.730Z,29.13
2022-10-01T20:10:12.980Z,28.90
2022-10-01T20:12:40.141Z,29.22
2022-10-01T20:15:26.832Z,28.77
2022-10-01T20:18:13.275Z,28.92
2022-10-01T20:20:43.688Z,28.96
2022-10-01T20:23:29.428Z,28.99
2022-10-01T20:26:06.086Z,28.82
2022-10-01T20:28:52.891Z,29.25
2022-10-01T20:31:44.517Z,29.17
2022-10-01T20:34:31.044Z,28.89
2022-10-01T20:37:09.189Z,29.10
2022-10-01T20:39:41.117Z,28.96
2022-10-01T20:42:14.488Z,28.99
2022-10-01T20:44:42.184Z,29.04
2022-10-01T20:47:32.136Z,28.77
2022-10-01T20:50:18.128Z,29.23
2022-10-01T20:52:48.226Z,29.02
2022-10-01T20:55:26.683Z,29.34
2022-10-01T20:57:56.106Z,29.48
2022-10-01T21:00:24.390Z,28.95
2022-10-01T21:03:11.192Z,29.49
2022-10-01T21:05:42.727Z,28.66
2022-10-01T21:08:19.164Z,29.27
2022-10-01T21:10:48.176Z,29.26
2022-10-01T21:13:15.341Z,29.15
2022-10-01T21:15:45.345Z,29.14
2022-10-01T21:18:21.154Z,29.15
2022-10-01T21:20:56.232Z,29.22
2022-10-01T21:23:23.519Z,29.08
2022-10-01T21:25:50.679Z,29.00
2022-10-01T21:28:36.320Z,29.31
2022-10-01T21:31:06.309Z,29.34
2022-10-01T21:33:34.888Z,29.30
2022-10-01T21:36:07.098Z,29.05
2022-10-01T21:38:44.539Z,29.30
2022-10-01T21:41:23.718Z,29.38
2022-10-01T21:43:56.579Z,29.58
2022-10-01T21:46:37.072Z,29.18
2022-10-01T21:49:10.675Z,29.84
2022-10-01T21:51:40.696Z,29.38
2022-10-01T21:54:31.225Z,29.30
2022-10-01T21:57:02.464Z,29.25
2022-10-01T21:59:49.973Z,29.06
2022-10-01T22:02:27.895Z,29.27
2022-10-01T22:05:11.058Z,29.11
2022-10-01T22:07:38.304Z,29.38
2022-10-01T22:10:12.226Z,29.23
2022-10-01T22:12:41.451Z,29.19
2022-10-01T22:15:23.647Z,29.52
2022-10-01T22:17:53.793Z,29.53
2022-10-01T22:20:23.682Z,29.48
2022-10-01T22:22:55.044Z,29.48
2022-10-01T22:25:22.400Z,29.64
2022-10-01T22:27:57.390Z,29.45
2022-10-01T22:30:33.564Z,29.01
2022-10-01T22:33:03.840Z,28.82
2022-10-01T22:35:33.481Z,29.07
2022-10-01T22:38:05.569Z,29.27
2022-10-01T22:40:39.733Z,29.18
2022-10-01T22:43:11.090Z,28.99
2022-10-01T22:45:53.340Z,29.05
2022-10-01T22:48:26.476Z,29.22
2022-10-01T22:51:10.205Z,29.13
2022-10-01T22:54:01.611Z,28.41
2022-10-01T22:56:48.472Z,28.84
2022-10-01T22:59:15.871Z,28.34
2022-10-01T23:01:46.062Z,28.94
2022-10-01T23:04:35.508Z,28.81
2022-10-01T23:07:11.489Z,28.82
2022-10-01T23:09:46.093Z,28.64
2022-10-01T23:12:19.139Z,28.25
2022-10-01T23:14:49.182Z,29.02
2022-10-01T23:17:22.990Z,28.76
2022-10-01T23:20:09.576Z,28.75
2022-10-01T23:22:54.189Z,28.63
2022-10-01T23:25:33.513Z,28.70
2022-10-01T23:28:07.898Z,28.69
2022-10-01T23:30:44.513Z,28.47
2022-10-01T23:33:30.799Z,28.81
2022-10-01T23:35:58.068Z,28.56
2022-10-01T23:38:25.203Z,28.84
2022-10-01T23:40:52.373Z,29.35
2022-10-01T23:43:24.442Z,28.98
2022-10-01T23:45:51.764Z,28.90
2022-10-01T23:48:33.331Z,28.38
2022-10-01T23:51:03.061Z,28.16
2022-10-01T23:53:33.988Z,28.93
2022-10-01T23:56:34.567Z,28.50
2022-10-01T23:59:04.523Z,27.73
